Time;durP1;ratioP1;P1;durP2;ratioP2;P2;SDS_P1;SDS_P2;PMS_P1;PMS_P2;Temp;Humidity;BMP_temperature;BMP_pressure;BME280_temperature;BME280_humidity;BME280_pressure;Samples;Min_cycle;Max_cycle;Signal;HPM_P1;HPM_P2
2023/04/05 00:00:54;;;;;;;3.35;1.50;;;2.50;99.90;;;;;;5070037;28;20398;-74
2023/04/05 00:03:21;;;;;;;4.35;1.70;;;2.50;99.90;;;;;;5072859;28;20097;-75
2023/04/05 00:05:49;;;;;;;1.77;1.60;;;2.50;99.90;;;;;;5053334;28;20083;-74
2023/04/05 00:08:23;;;;;;;1.80;1.40;;;2.60;99.90;;;;;;5065851;28;20088;-74
2023/04/05 00:10:50;;;;;;;2.97;1.70;;;2.50;99.90;;;;;;5073300;28;20075;-75
2023/04/05 00:13:18;;;;;;;3.40;1.58;;;2.50;99.90;;;;;;5073055;28;20420;-75
2023/04/05 00:15:45;;;;;;;2.92;1.80;;;2.50;99.90;;;;;;5070615;28;20048;-75
2023/04/05 00:18:20;;;;;;;3.63;1.92;;;2.50;99.90;;;;;;5074482;28;20049;-75
2023/04/05 00:20:48;;;;;;;2.28;1.70;;;2.40;99.90;;;;;;5070945;28;20562;-75
2023/04/05 00:23:16;;;;;;;2.15;1.40;;;2.50;99.90;;;;;;5071531;28;20098;-75
2023/04/05 00:25:44;;;;;;;1.92;1.83;;;2.50;99.90;;;;;;5060631;28;20052;-74
2023/04/05 00:28:12;;;;;;;2.15;1.90;;;2.50;99.90;;;;;;5060409;28;20048;-74
2023/04/05 00:30:40;;;;;;;2.47;1.60;;;2.50;99.90;;;;;;5061681;28;20186;-75
2023/04/05 00:33:07;;;;;;;2.92;1.50;;;2.50;99.90;;;;;;5057515;28;20041;-75
2023/04/05 00:35:36;;;;;;;2.75;1.60;;;2.50;99.90;;;;;;5071704;28;20151;-75
2023/04/05 00:38:03;;;;;;;1.48;1.38;;;2.50;99.90;;;;;;5070920;28;20127;-75
2023/04/05 00:40:31;;;;;;;1.70;1.60;;;2.50;99.90;;;;;;5071929;28;20055;-75
2023/04/05 00:42:58;;;;;;;1.95;1.60;;;2.50;99.90;;;;;;5070362;28;20412;-75
2023/04/05 00:45:26;;;;;;;3.42;1.70;;;2.50;99.90;;;;;;5065750;28;20503;-74
2023/04/05 00:47:53;;;;;;;2.58;1.20;;;2.50;99.90;;;;;;5069153;28;20041;-74
2023/04/05 00:50:22;;;;;;;1.90;1.17;;;2.40;99.90;;;;;;5083573;28;20075;-75
2023/04/05 00:52:51;;;;;;;3.80;2.15;;;2.50;99.90;;;;;;5069434;28;20539;-73
2023/04/05 00:55:19;;;;;;;1.40;1.30;;;2.40;99.90;;;;;;5069818;28;20139;-75
2023/04/05 00:57:48;;;;;;;1.90;1.33;;;2.40;99.90;;;;;;5073166;28;20505;-75
2023/04/05 01:00:17;;;;;;;1.73;1.30;;;2.50;99.90;;;;;;5036851;28;20497;-74
2023/04/05 01:02:50;;;;;;;3.17;1.42;;;2.40;99.90;;;;;;5055802;28;20060;-74
2023/04/05 01:05:35;;;;;;;2.47;1.38;;;2.40;99.90;;;;;;5073330;28;20054;-75
2023/04/05 01:08:16;;;;;;;2.03;1.38;;;2.40;99.90;;;;;;5054180;28;20048;-75
2023/04/05 01:10:52;;;;;;;2.42;1.58;;;2.40;99.90;;;;;;5071421;28;20049;-75
2023/04/05 01:13:19;;;;;;;2.20;1.60;;;2.40;99.90;;;;;;5072700;28;20094;-75
2023/04/05 01:15:47;;;;;;;1.73;1.60;;;2.40;99.90;;;;;;5071976;28;20048;-75
2023/04/05 01:18:14;;;;;;;2.45;1.52;;;2.40;99.90;;;;;;5071945;28;20051;-75
2023/04/05 01:21:01;;;;;;;3.00;1.42;;;2.40;99.90;;;;;;5058390;28;20064;-75
2023/04/05 01:23:43;;;;;;;3.40;1.30;;;2.40;99.90;;;;;;5069368;28;20533;-74
2023/04/05 01:26:39;;;;;;;2.30;1.60;;;2.40;99.90;;;;;;5072681;28;20052;-74
2023/04/05 01:29:59;;;;;;;2.08;1.75;;;2.40;99.90;;;;;;5069956;28;20052;-74
2023/04/05 01:32:55;;;;;;;1.83;1.50;;;2.40;99.90;;;;;;5070502;28;20044;-75
2023/04/05 01:35:37;;;;;;;2.30;1.48;;;2.40;99.90;;;;;;5055187;28;20075;-76
2023/04/05 01:38:07;;;;;;;2.20;1.63;;;2.40;99.90;;;;;;5069842;28;20068;-74
2023/04/05 01:40:37;;;;;;;2.00;1.48;;;2.40;99.90;;;;;;5071939;28;20508;-74
2023/04/05 01:43:14;;;;;;;2.53;1.70;;;2.40;99.90;;;;;;5071906;28;20067;-75
2023/04/05 01:45:44;;;;;;;2.70;1.92;;;2.30;99.90;;;;;;5070564;28;20041;-75
2023/04/05 01:48:12;;;;;;;8.30;2.00;;;2.30;99.90;;;;;;5071201;28;20677;-75
2023/04/05 01:50:40;;;;;;;2.88;1.73;;;2.30;99.90;;;;;;5070744;28;20480;-74
2023/04/05 01:53:08;;;;;;;2.22;1.40;;;2.40;99.90;;;;;;5063555;28;20513;-75
2023/04/05 01:55:36;;;;;;;5.18;2.53;;;2.30;99.90;;;;;;5069149;28;20144;-74
2023/04/05 01:58:03;;;;;;;4.55;1.63;;;2.40;99.90;;;;;;5072245;28;20490;-75
2023/04/05 02:00:31;;;;;;;1.95;1.67;;;2.40;99.90;;;;;;5070620;28;20051;-74
2023/04/05 02:03:00;;;;;;;2.30;1.60;;;2.40;99.90;;;;;;5058805;28;20444;-75
2023/04/05 02:05:27;;;;;;;1.67;1.58;;;2.40;99.90;;;;;;5068800;28;20083;-73
2023/04/05 02:07:55;;;;;;;1.98;1.80;;;2.40;99.90;;;;;;5069659;28;20044;-74
2023/04/05 02:10:23;;;;;;;4.00;1.80;;;2.40;99.90;;;;;;5070345;28;20428;-74
2023/04/05 02:12:51;;;;;;;3.13;2.35;;;2.40;99.90;;;;;;5070530;28;20048;-73
2023/04/05 02:15:18;;;;;;;3.60;2.20;;;2.40;99.90;;;;;;5065185;28;20052;-74
2023/04/05 02:17:45;;;;;;;2.25;1.73;;;2.40;99.90;;;;;;5054290;28;20044;-74
2023/04/05 02:20:17;;;;;;;2.45;2.00;;;2.40;99.90;;;;;;5070383;28;20492;-75
2023/04/05 02:22:44;;;;;;;3.55;1.75;;;2.40;99.90;;;;;;5061870;28;20045;-75
2023/04/05 02:25:12;;;;;;;2.95;2.20;;;2.40;99.90;;;;;;5071408;28;20055;-74
2023/04/05 02:27:40;;;;;;;1.75;1.65;;;2.40;99.90;;;;;;5051783;28;20131;-75
2023/04/05 02:30:09;;;;;;;2.45;1.90;;;2.40;99.90;;;;;;5060946;28;20056;-74
2023/04/05 02:32:36;;;;;;;3.42;2.15;;;2.30;99.90;;;;;;5050329;28;20505;-74
2023/04/05 02:35:05;;;;;;;3.05;1.50;;;2.30;99.90;;;;;;5069603;28;20122;-75
2023/04/05 02:37:34;;;;;;;2.67;1.80;;;2.30;99.90;;;;;;5052814;28;20314;-76
2023/04/05 02:40:03;;;;;;;2.10;1.90;;;2.30;99.90;;;;;;5069518;28;20135;-74
2023/04/05 02:42:31;;;;;;;3.72;1.80;;;2.30;99.90;;;;;;5070103;28;20098;-74
2023/04/05 02:44:59;;;;;;;1.63;1.42;;;2.20;99.90;;;;;;5068791;28;20049;-74
2023/04/05 02:47:26;;;;;;;2.95;1.50;;;2.20;99.90;;;;;;5065742;28;20037;-73
2023/04/05 02:49:58;;;;;;;2.30;1.70;;;2.30;99.90;;;;;;5057306;28;20394;-74
2023/04/05 02:52:33;;;;;;;4.25;1.45;;;2.30;99.90;;;;;;5067586;28;20051;-74
2023/04/05 02:55:01;;;;;;;2.63;1.55;;;2.30;99.90;;;;;;5043750;28;20102;-76
2023/04/05 02:57:31;;;;;;;2.47;1.70;;;2.30;99.90;;;;;;5053265;28;20052;-75
2023/04/05 03:00:09;;;;;;;4.20;2.10;;;2.30;99.90;;;;;;5034102;28;20049;-76
2023/04/05 03:02:38;;;;;;;6.90;3.05;;;2.30;99.90;;;;;;5067627;28;20044;-74
2023/04/05 03:05:08;;;;;;;3.67;2.55;;;2.30;99.90;;;;;;5068755;28;20554;-74
2023/04/05 03:07:37;;;;;;;2.63;1.83;;;2.30;99.90;;;;;;5051317;28;20045;-74
2023/04/05 03:10:09;;;;;;;2.42;1.98;;;2.30;99.90;;;;;;5056670;28;20417;-74
2023/04/05 03:12:40;;;;;;;2.35;1.80;;;2.30;99.90;;;;;;5052356;28;20049;-74
2023/04/05 03:15:10;;;;;;;2.47;1.80;;;2.30;99.90;;;;;;5067180;28;20386;-74
2023/04/05 03:17:43;;;;;;;3.08;1.73;;;2.30;99.90;;;;;;5051689;28;20050;-75
2023/04/05 03:20:13;;;;;;;1.52;1.42;;;2.30;99.90;;;;;;5069224;28;20524;-74
2023/04/05 03:22:42;;;;;;;5.70;1.98;;;2.30;99.90;;;;;;5052636;28;20063;-76
2023/04/05 03:25:11;;;;;;;1.90;1.70;;;2.30;99.90;;;;;;5064551;28;20044;-74
2023/04/05 03:27:44;;;;;;;2.22;1.67;;;2.30;99.90;;;;;;5069444;28;20068;-75
2023/04/05 03:30:18;;;;;;;2.63;1.98;;;2.30;99.90;;;;;;5069602;28;20052;-75
2023/04/05 03:32:52;;;;;;;2.05;1.55;;;2.40;99.90;;;;;;5068097;28;20066;-75
2023/04/05 03:35:39;;;;;;;5.70;2.15;;;2.40;99.90;;;;;;5066873;28;20512;-75
2023/04/05 03:38:11;;;;;;;2.55;1.80;;;2.40;99.90;;;;;;5067627;28;20052;-74
2023/04/05 03:40:46;;;;;;;3.83;1.73;;;2.40;99.90;;;;;;5039988;28;20053;-74
2023/04/05 03:43:13;;;;;;;2.22;1.63;;;2.40;99.90;;;;;;5068707;28;20075;-75
2023/04/05 03:45:41;;;;;;;4.05;1.95;;;2.40;99.90;;;;;;5049753;28;20068;-75
2023/04/05 03:48:11;;;;;;;1.88;1.67;;;2.40;99.90;;;;;;5070578;28;20060;-76
2023/04/05 03:50:39;;;;;;;4.40;1.92;;;2.40;99.90;;;;;;5068109;28;20046;-75
2023/04/05 03:53:07;;;;;;;2.25;1.80;;;2.40;99.90;;;;;;5065641;28;20063;-75
2023/04/05 03:55:36;;;;;;;4.50;1.83;;;2.40;99.90;;;;;;5040228;28;20129;-75
2023/04/05 03:58:06;;;;;;;2.67;1.80;;;2.40;99.90;;;;;;5062580;28;20053;-75
2023/04/05 04:00:36;;;;;;;3.80;1.98;;;2.40;99.90;;;;;;5066081;28;20045;-75
2023/04/05 04:03:19;;;;;;;2.30;1.50;;;2.50;99.90;;;;;;5064399;28;20053;-74
2023/04/05 04:06:00;;;;;;;3.13;1.63;;;2.50;99.90;;;;;;5068411;28;20306;-75
2023/04/05 04:08:29;;;;;;;2.85;1.85;;;2.50;99.90;;;;;;5066506;28;20041;-76
2023/04/05 04:11:01;;;;;;;2.90;2.10;;;2.40;99.90;;;;;;5055813;28;20056;-76
2023/04/05 04:13:32;;;;;;;3.40;2.00;;;2.40;99.90;;;;;;5067432;28;20057;-76
2023/04/05 04:16:05;;;;;;;3.10;1.80;;;2.40;99.90;;;;;;5063927;28;20048;-76
2023/04/05 04:18:53;;;;;;;2.92;2.20;;;2.40;99.90;;;;;;5067907;28;20461;-77
2023/04/05 04:21:32;;;;;;;7.53;2.92;;;2.40;99.90;;;;;;5045281;28;20052;-76
2023/04/05 04:24:15;;;;;;;4.85;2.00;;;2.40;99.90;;;;;;5067979;28;20048;-74
2023/04/05 04:26:53;;;;;;;2.85;2.13;;;2.50;99.90;;;;;;5068081;28;20049;-74
2023/04/05 04:29:45;;;;;;;2.03;1.85;;;2.50;99.90;;;;;;5066398;28;20048;-75
2023/04/05 04:32:53;;;;;;;2.53;1.73;;;2.50;99.90;;;;;;5058382;28;20049;-76
2023/04/05 04:35:37;;;;;;;2.15;1.50;;;2.50;99.90;;;;;;5049700;28;20064;-77
2023/04/05 04:38:54;;;;;;;4.20;2.03;;;2.50;99.90;;;;;;5058073;28;20044;-76
2023/04/05 04:41:45;;;;;;;2.88;1.52;;;2.50;99.90;;;;;;5068700;28;20044;-74
2023/04/05 04:44:33;;;;;;;2.40;1.77;;;2.40;99.90;;;;;;5068675;28;20420;-75
2023/04/05 04:47:16;;;;;;;1.73;1.50;;;2.50;99.90;;;;;;5071326;28;20057;-75
2023/04/05 04:50:03;;;;;;;2.65;2.03;;;2.50;99.90;;;;;;5069367;28;20420;-76
2023/04/05 04:52:31;;;;;;;3.88;2.20;;;2.60;99.90;;;;;;5043534;28;20509;-75
2023/04/05 04:55:01;;;;;;;4.43;1.85;;;2.60;99.90;;;;;;5065388;28;20106;-75
2023/04/05 04:57:30;;;;;;;2.60;2.20;;;2.60;99.90;;;;;;5061373;28;20655;-75
2023/04/05 04:59:59;;;;;;;3.10;2.30;;;2.70;99.90;;;;;;5059861;28;20139;-75
2023/04/05 05:02:28;;;;;;;2.65;1.95;;;2.70;99.90;;;;;;5041696;28;20045;-75
2023/04/05 05:04:58;;;;;;;5.20;2.08;;;2.70;99.90;;;;;;5062429;28;20041;-75
2023/04/05 05:07:25;;;;;;;2.22;1.80;;;2.70;99.90;;;;;;5067285;28;20052;-75
2023/04/05 05:09:53;;;;;;;3.17;1.83;;;2.70;99.90;;;;;;5062348;28;20049;-75
2023/04/05 05:12:22;;;;;;;3.78;1.95;;;2.70;99.90;;;;;;5061989;28;20053;-74
2023/04/05 05:14:50;;;;;;;4.75;2.15;;;2.80;99.90;;;;;;5065930;28;20396;-74
2023/04/05 05:17:22;;;;;;;2.25;1.98;;;2.80;99.90;;;;;;5062306;28;20047;-75
2023/04/05 05:19:50;;;;;;;4.05;2.22;;;2.80;99.90;;;;;;5064876;28;20056;-79
2023/04/05 05:22:17;;;;;;;2.03;1.60;;;2.80;99.90;;;;;;5068769;28;20487;-78
2023/04/05 05:24:46;;;;;;;2.35;2.15;;;2.90;99.90;;;;;;5066111;28;20056;-78
2023/04/05 05:27:15;;;;;;;2.92;2.22;;;2.90;99.90;;;;;;5061026;28;20049;-78
2023/04/05 05:29:42;;;;;;;2.15;1.88;;;2.90;99.90;;;;;;5063241;28;20182;-77
2023/04/05 05:32:13;;;;;;;2.92;2.63;;;2.90;99.90;;;;;;5065711;28;20174;-78
2023/04/05 05:34:43;;;;;;;4.25;2.40;;;3.00;99.90;;;;;;5059916;28;20041;-78
2023/04/05 05:37:12;;;;;;;6.07;2.38;;;3.00;99.90;;;;;;5056824;28;20051;-76
2023/04/05 05:39:39;;;;;;;2.88;2.10;;;3.00;99.90;;;;;;5044608;28;20036;-78
2023/04/05 05:42:07;;;;;;;3.15;2.50;;;3.00;99.90;;;;;;5057771;28;20520;-76
2023/04/05 05:44:34;;;;;;;2.58;1.90;;;3.10;99.90;;;;;;5059825;28;20052;-78
2023/04/05 05:47:02;;;;;;;3.13;2.35;;;3.10;99.90;;;;;;5057076;28;20044;-78
2023/04/05 05:49:30;;;;;;;2.20;1.95;;;3.10;99.90;;;;;;5056619;28;20045;-76
2023/04/05 05:51:59;;;;;;;3.25;2.17;;;3.20;99.90;;;;;;5065835;28;20369;-77
2023/04/05 05:54:27;;;;;;;5.03;2.28;;;3.20;99.90;;;;;;5070884;28;20527;-76
2023/04/05 05:56:57;;;;;;;4.72;2.60;;;3.20;99.90;;;;;;5071968;28;20129;-77
2023/04/05 05:59:25;;;;;;;2.45;1.83;;;3.30;99.90;;;;;;5071060;28;20106;-77
2023/04/05 06:01:53;;;;;;;6.50;2.50;;;3.30;99.90;;;;;;5064343;28;20071;-77
2023/04/05 06:04:20;;;;;;;3.80;2.40;;;3.40;99.90;;;;;;5068253;28;20508;-77
2023/04/05 06:06:48;;;;;;;3.05;1.85;;;3.40;99.90;;;;;;5063206;28;20061;-78
2023/04/05 06:09:17;;;;;;;3.65;2.00;;;3.40;99.90;;;;;;5056514;28;20114;-78
2023/04/05 06:11:45;;;;;;;3.53;2.10;;;3.50;99.90;;;;;;5072214;28;20051;-77
2023/04/05 06:14:12;;;;;;;3.55;2.25;;;3.50;99.90;;;;;;5065469;28;20057;-76
2023/04/05 06:16:40;;;;;;;3.13;2.00;;;3.60;99.90;;;;;;5061632;28;20484;-76
2023/04/05 06:19:07;;;;;;;7.53;2.28;;;3.60;99.90;;;;;;5043304;28;20048;-78
2023/04/05 06:21:35;;;;;;;3.70;2.65;;;3.60;99.90;;;;;;5067115;28;20122;-78
2023/04/05 06:24:02;;;;;;;4.85;2.15;;;3.60;99.90;;;;;;5059266;28;20053;-79
2023/04/05 06:26:31;;;;;;;3.83;2.30;;;3.60;99.90;;;;;;5059372;28;20052;-78
2023/04/05 06:28:59;;;;;;;3.55;2.60;;;3.60;99.90;;;;;;5061665;28;20128;-78
2023/04/05 06:31:31;;;;;;;3.40;2.22;;;3.50;99.90;;;;;;5060537;28;20045;-79
2023/04/05 06:33:59;;;;;;;2.88;2.33;;;3.50;99.90;;;;;;5063599;28;20060;-78
2023/04/05 06:36:26;;;;;;;3.92;2.35;;;3.60;99.90;;;;;;5065384;28;20040;-78
2023/04/05 06:38:54;;;;;;;3.97;2.25;;;3.60;99.90;;;;;;5061661;28;20048;-79
2023/04/05 06:41:22;;;;;;;4.13;2.13;;;3.60;99.90;;;;;;5059294;28;20499;-78
2023/04/05 06:43:51;;;;;;;4.00;2.70;;;3.70;99.90;;;;;;5060777;28;20052;-77
2023/04/05 06:46:18;;;;;;;3.15;2.10;;;3.90;99.90;;;;;;5060891;28;20059;-77
2023/04/05 06:48:47;;;;;;;2.30;2.10;;;4.10;99.90;;;;;;5060252;28;20053;-77
2023/04/05 06:51:14;;;;;;;5.80;2.40;;;4.30;99.90;;;;;;5040200;28;20044;-76
2023/04/05 06:53:42;;;;;;;3.00;2.20;;;4.40;99.90;;;;;;5058396;28;20051;-76
2023/04/05 06:56:09;;;;;;;3.10;1.90;;;4.50;99.90;;;;;;5061004;28;20045;-78
2023/04/05 06:58:37;;;;;;;4.35;2.38;;;4.70;99.90;;;;;;5060316;28;20501;-77
2023/04/05 07:01:07;;;;;;;4.18;2.55;;;4.80;99.90;;;;;;5058543;28;20501;-78
2023/04/05 07:03:35;;;;;;;3.78;3.13;;;4.80;99.90;;;;;;5058430;28;20045;-79
2023/04/05 07:06:03;;;;;;;3.80;2.38;;;4.90;99.90;;;;;;5060205;28;20086;-79
2023/04/05 07:08:33;;;;;;;4.00;2.65;;;5.00;99.90;;;;;;5050436;28;20045;-79
2023/04/05 07:11:00;;;;;;;2.53;2.28;;;5.10;99.90;;;;;;5064837;28;20539;-77
2023/04/05 07:13:28;;;;;;;2.67;2.25;;;5.20;99.90;;;;;;5068593;28;20423;-78
2023/04/05 07:16:01;;;;;;;4.30;2.38;;;5.30;99.90;;;;;;5054804;28;20592;-79
2023/04/05 07:18:30;;;;;;;3.15;2.28;;;5.40;99.90;;;;;;5058874;28;20393;-79
2023/04/05 07:21:03;;;;;;;6.40;2.50;;;5.40;99.90;;;;;;5062016;28;20509;-77
2023/04/05 07:23:30;;;;;;;;;;;5.50;99.90;;;;;;5056909;28;20079;-76
2023/04/05 07:26:04;;;;;;;3.13;2.00;;;5.60;99.90;;;;;;5051926;28;19963;-78
2023/04/05 07:28:34;;;;;;;2.90;1.98;;;5.70;99.90;;;;;;5055858;28;20048;-77
2023/04/05 07:31:02;;;;;;;4.78;2.63;;;5.70;99.90;;;;;;5067139;28;20048;-78
2023/04/05 07:33:31;;;;;;;3.25;2.13;;;5.90;99.90;;;;;;5067309;28;20139;-79
2023/04/05 07:35:58;;;;;;;4.57;2.50;;;6.00;99.90;;;;;;5066675;28;20084;-80
2023/04/05 07:38:27;;;;;;;8.00;2.25;;;6.20;99.90;;;;;;5065783;28;20044;-77
2023/04/05 07:40:55;;;;;;;6.00;2.42;;;6.20;99.90;;;;;;5067235;28;20102;-78
2023/04/05 07:43:24;;;;;;;3.50;1.88;;;6.30;99.90;;;;;;5065543;28;20046;-79
2023/04/05 07:45:52;;;;;;;2.63;2.00;;;6.40;99.90;;;;;;5059629;28;20095;-78
2023/04/05 07:48:20;;;;;;;3.22;2.10;;;6.40;99.90;;;;;;5055427;28;20497;-78
2023/04/05 07:50:51;;;;;;;3.72;2.00;;;6.60;99.90;;;;;;5058414;28;20550;-80
2023/04/05 07:53:19;;;;;;;5.05;2.55;;;6.90;99.90;;;;;;5058172;28;20045;-79
2023/04/05 07:55:46;;;;;;;2.17;1.80;;;7.10;99.90;;;;;;5063828;28;20476;-79
2023/04/05 07:58:15;;;;;;;3.17;1.77;;;7.20;99.90;;;;;;5057975;28;20094;-77
2023/04/05 08:00:42;;;;;;;2.25;1.90;;;7.40;99.90;;;;;;5061230;28;20456;-78
2023/04/05 08:03:10;;;;;;;2.85;2.00;;;7.40;99.90;;;;;;5056563;28;20052;-79
2023/04/05 08:05:38;;;;;;;3.80;1.80;;;7.40;99.90;;;;;;5064225;28;20079;-77
2023/04/05 08:08:09;;;;;;;3.28;1.70;;;7.60;99.90;;;;;;5053990;28;20167;-81
2023/04/05 08:10:39;;;;;;;1.93;1.83;;;7.70;99.90;;;;;;5057934;28;20048;-78
2023/04/05 08:13:07;;;;;;;6.30;2.53;;;7.80;99.90;;;;;;5067449;28;20047;-79
2023/04/05 08:15:44;;;;;;;2.65;2.00;;;7.70;99.90;;;;;;5079463;28;20056;-81
2023/04/05 08:18:12;;;;;;;1.77;1.67;;;7.60;99.90;;;;;;5063986;28;20318;-81
2023/04/05 08:20:40;;;;;;;3.42;1.83;;;7.50;99.90;;;;;;5063838;28;20079;-81
2023/04/05 08:23:09;;;;;;;2.55;1.80;;;7.50;99.90;;;;;;5066081;28;20061;-78
2023/04/05 08:25:36;;;;;;;3.90;1.60;;;7.50;99.90;;;;;;5066110;28;20122;-79
2023/04/05 08:28:04;;;;;;;1.90;1.58;;;7.50;99.90;;;;;;5067915;28;20577;-77
2023/04/05 08:30:32;;;;;;;6.35;2.28;;;7.50;99.90;;;;;;5064974;28;20052;-76
2023/04/05 08:33:00;;;;;;;1.60;1.50;;;7.50;99.90;;;;;;5058942;28;20045;-78
2023/04/05 08:35:27;;;;;;;3.15;1.42;;;7.50;99.90;;;;;;5068468;28;20037;-77
2023/04/05 08:37:55;;;;;;;1.50;1.38;;;7.50;99.90;;;;;;5061683;28;20063;-79
2023/04/05 08:40:30;;;;;;;4.03;2.17;;;7.40;99.90;;;;;;5052384;28;20153;-78
2023/04/05 08:43:07;;;;;;;2.13;1.73;;;7.50;99.90;;;;;;5062588;28;20401;-77
2023/04/05 08:45:38;;;;;;;2.97;1.90;;;7.50;99.90;;;;;;5062766;28;20082;-79
2023/04/05 08:48:06;;;;;;;3.58;1.63;;;7.60;99.90;;;;;;5060690;28;20049;-78
2023/04/05 08:50:33;;;;;;;4.85;2.20;;;7.50;99.90;;;;;;5061196;28;20045;-78
2023/04/05 08:53:01;;;;;;;3.10;2.35;;;7.40;99.90;;;;;;5063941;28;20608;-78
2023/04/05 08:55:30;;;;;;;5.30;2.13;;;7.50;99.90;;;;;;5056539;28;20040;-79
2023/04/05 08:58:03;;;;;;;3.92;2.22;;;7.50;99.90;;;;;;5059661;28;20041;-79
2023/04/05 09:00:31;;;;;;;;;;;7.50;99.90;;;;;;5057744;28;20048;-78
2023/04/05 09:03:01;;;;;;;2.67;2.05;;;7.50;99.90;;;;;;5057178;28;19931;-78
2023/04/05 09:05:32;;;;;;;1.80;1.70;;;7.50;99.90;;;;;;5057472;28;20044;-81
2023/04/05 09:08:01;;;;;;;6.53;2.10;;;7.70;99.90;;;;;;5058986;28;20095;-81
2023/04/05 09:10:31;;;;;;;10.15;3.35;;;7.80;99.90;;;;;;5062982;28;20040;-81
2023/04/05 09:13:02;;;;;;;3.10;2.03;;;7.80;99.90;;;;;;5059072;28;20497;-83
2023/04/05 09:15:31;;;;;;;5.13;2.33;;;7.80;99.90;;;;;;5060916;28;20103;-81
2023/04/05 09:17:58;;;;;;;3.65;2.47;;;7.80;99.90;;;;;;5058449;28;20072;-80
2023/04/05 09:20:26;;;;;;;3.72;2.38;;;8.00;99.90;;;;;;5062516;28;20061;-82
2023/04/05 09:22:53;;;;;;;5.88;2.60;;;8.20;99.90;;;;;;5067826;28;20058;-80
2023/04/05 09:25:37;;;;;;;6.70;2.85;;;8.40;99.90;;;;;;5067677;28;20079;-81
2023/04/05 09:28:06;;;;;;;6.10;2.72;;;8.70;99.90;;;;;;5052590;28;20056;-81
2023/04/05 09:30:35;;;;;;;6.43;2.53;;;8.70;99.90;;;;;;5042100;28;20048;-81
2023/04/05 09:33:05;;;;;;;3.70;2.30;;;8.80;99.90;;;;;;5059710;28;20053;-81
2023/04/05 09:35:33;;;;;;;3.10;2.20;;;8.70;99.90;;;;;;5064140;28;20074;-81
2023/04/05 09:38:02;;;;;;;5.63;2.35;;;8.70;99.90;;;;;;5062934;28;20076;-80
2023/04/05 09:40:45;;;;;;;3.53;2.20;;;8.80;99.90;;;;;;5042846;28;20398;-80
2023/04/05 09:43:37;;;;;;;4.95;2.38;;;9.00;99.90;;;;;;5046597;28;20114;-80
2023/04/05 09:46:05;;;;;;;3.47;2.10;;;9.20;99.90;;;;;;5063569;28;20139;-80
2023/04/05 09:48:47;;;;;;;4.43;2.65;;;9.40;99.90;;;;;;5069350;28;20056;-81
2023/04/05 09:51:15;;;;;;;8.43;2.63;;;9.50;99.90;;;;;;5065526;28;20159;-82
2023/04/05 09:53:58;;;;;;;2.83;2.42;;;9.50;99.90;;;;;;5056990;28;20045;-80
2023/04/05 09:56:30;;;;;;;5.10;2.63;;;9.50;99.90;;;;;;5074298;28;20131;-80
2023/04/05 09:59:03;;;;;;;4.85;2.75;;;9.50;99.90;;;;;;5058970;28;20049;-80
2023/04/05 10:01:34;;;;;;;4.20;2.70;;;9.60;99.90;;;;;;5060078;28;20079;-82
2023/04/05 10:04:03;;;;;;;4.32;2.20;;;9.60;99.90;;;;;;5064138;28;20049;-82
2023/04/05 10:06:38;;;;;;;3.03;2.35;;;9.70;99.90;;;;;;5064434;28;20128;-79
2023/04/05 10:09:08;;;;;;;8.15;3.72;;;9.70;99.90;;;;;;5046148;28;20122;-86
2023/04/05 10:11:39;;;;;;;8.68;2.70;;;9.80;99.90;;;;;;5039586;28;20056;-82
2023/04/05 10:14:08;;;;;;;4.28;2.15;;;9.80;99.90;;;;;;5047069;28;20059;-80
2023/04/05 10:16:43;;;;;;;4.57;2.50;;;9.90;99.90;;;;;;5059972;28;20541;-81
2023/04/05 10:19:23;;;;;;;4.97;2.25;;;9.90;99.90;;;;;;5057468;28;20048;-80
2023/04/05 10:21:54;;;;;;;4.05;2.65;;;9.80;99.90;;;;;;5060159;28;20140;-81
2023/04/05 10:24:40;;;;;;;11.88;3.13;;;9.80;99.90;;;;;;5055866;28;20052;-81
2023/04/05 10:27:19;;;;;;;6.75;2.40;;;9.70;99.90;;;;;;5072881;28;20048;-82
2023/04/05 10:29:57;;;;;;;3.78;2.53;;;9.70;99.90;;;;;;5060854;28;20083;-81
2023/04/05 10:32:38;;;;;;;4.70;2.30;;;9.50;99.90;;;;;;5055593;28;20063;-81
2023/04/05 10:35:13;;;;;;;3.42;2.20;;;9.40;99.90;;;;;;5061096;28;20048;-80
2023/04/05 10:37:56;;;;;;;5.03;2.03;;;9.50;99.90;;;;;;5058808;28;20056;-81
2023/04/05 10:40:29;;;;;;;5.20;2.60;;;9.60;99.90;;;;;;5059791;28;20044;-82
2023/04/05 10:42:58;;;;;;;2.88;2.67;;;9.70;99.90;;;;;;5056114;28;20080;-81
2023/04/05 10:45:28;;;;;;;3.67;2.25;;;9.60;99.90;;;;;;5063905;28;20394;-80
2023/04/05 10:48:05;;;;;;;5.20;2.67;;;9.50;99.90;;;;;;5062538;28;20548;-81
2023/04/05 10:50:33;;;;;;;4.07;2.22;;;9.60;99.90;;;;;;5057943;28;20063;-84
2023/04/05 10:53:02;;;;;;;3.33;2.35;;;9.60;99.90;;;;;;5059583;28;20433;-85
2023/04/05 10:55:31;;;;;;;5.00;2.25;;;9.60;99.90;;;;;;5061171;28;20047;-82
2023/04/05 10:58:02;;;;;;;3.47;2.50;;;9.60;99.90;;;;;;5062962;28;20057;-83
2023/04/05 11:00:32;;;;;;;7.82;2.47;;;9.70;99.90;;;;;;5051321;28;20044;-82
2023/04/05 11:03:00;;;;;;;5.93;2.75;;;9.80;99.90;;;;;;5056972;28;20140;-82
2023/04/05 11:05:38;;;;;;;2.78;2.33;;;9.80;99.90;;;;;;5062531;28;20055;-80
2023/04/05 11:08:08;;;;;;;5.93;2.20;;;9.70;99.90;;;;;;5044869;28;20055;-79
2023/04/05 11:10:39;;;;;;;4.72;2.13;;;9.60;99.90;;;;;;5063072;28;20724;-79
2023/04/05 11:13:13;;;;;;;4.68;2.45;;;9.50;99.90;;;;;;5060863;28;20056;-84
2023/04/05 11:15:42;;;;;;;4.50;2.20;;;9.50;99.90;;;;;;5055463;28;20052;-81
2023/04/05 11:18:11;;;;;;;3.08;2.30;;;9.50;99.90;;;;;;5056389;28;20064;-85
2023/04/05 11:20:50;;;;;;;3.38;2.28;;;9.50;99.90;;;;;;5064900;28;20884;-82
2023/04/05 11:23:21;;;;;;;4.63;2.22;;;9.50;99.90;;;;;;5063288;28;20141;-78
2023/04/05 11:25:52;;;;;;;4.05;2.22;;;9.60;99.90;;;;;;5055709;28;20040;-80
2023/04/05 11:28:29;;;;;;;2.10;1.85;;;9.60;99.90;;;;;;5059019;28;20411;-79
2023/04/05 11:30:57;;;;;;;4.10;1.80;;;9.60;99.90;;;;;;5063985;28;20641;-79
2023/04/05 11:33:59;;;;;;;1.95;1.70;;;9.80;99.90;;;;;;5054315;28;20043;-80
2023/04/05 11:36:32;;;;;;;2.67;1.80;;;9.80;99.90;;;;;;5065151;28;20052;-78
2023/04/05 11:39:27;;;;;;;;;;;9.70;99.90;;;;;;5055281;28;20044;-79
2023/04/05 11:42:00;;;;;;;5.88;2.15;;;9.50;99.90;;;;;;5055281;28;19924;-81
2023/04/05 11:44:33;;;;;;;3.03;1.90;;;9.20;99.90;;;;;;5049135;28;20078;-81
2023/04/05 11:47:06;;;;;;;7.05;2.58;;;8.90;99.90;;;;;;5055155;28;20075;-80
2023/04/05 11:49:35;;;;;;;2.90;2.00;;;8.80;99.90;;;;;;5064701;28;20045;-79
2023/04/05 11:52:12;;;;;;;2.33;1.77;;;8.70;99.90;;;;;;5056985;28;20044;-80
2023/04/05 11:54:44;;;;;;;3.33;2.00;;;8.60;99.90;;;;;;5063066;28;20045;-78
2023/04/05 11:57:26;;;;;;;3.80;1.98;;;8.30;99.90;;;;;;5059179;28;20164;-78
2023/04/05 11:59:55;;;;;;;2.47;2.03;;;8.20;99.90;;;;;;5062930;28;20584;-78
2023/04/05 12:02:23;;;;;;;2.22;1.92;;;8.10;99.90;;;;;;5064114;28;20533;-81
2023/04/05 12:04:55;;;;;;;3.28;1.70;;;7.90;99.90;;;;;;5042602;28;20051;-79
2023/04/05 12:07:27;;;;;;;6.47;2.58;;;7.70;99.90;;;;;;5067181;28;20048;-77
2023/04/05 12:10:12;;;;;;;4.40;2.72;;;7.70;99.90;;;;;;5064632;28;20399;-80
2023/04/05 12:12:46;;;;;;;4.25;2.47;;;7.70;99.90;;;;;;5057037;28;20068;-82
2023/04/05 12:15:17;;;;;;;;;;;7.90;99.90;;;;;;5058637;28;20663;-78
2023/04/05 12:17:50;;;;;;;3.17;2.53;;;8.00;99.90;;;;;;5062804;28;19925;-80
2023/04/05 12:20:23;;;;;;;;;;;8.00;99.90;;;;;;5062967;28;20053;-80
2023/04/05 12:22:55;;;;;;;3.88;2.15;;;7.90;99.90;;;;;;5056893;28;19954;-80
2023/04/05 12:25:24;;;;;;;2.78;2.42;;;7.90;99.90;;;;;;5057042;28;20419;-79
2023/04/05 12:27:52;;;;;;;2.42;2.22;;;8.00;99.90;;;;;;5065773;28;20032;-78
2023/04/05 12:30:23;;;;;;;4.30;2.38;;;8.00;99.90;;;;;;5060575;28;20053;-79
2023/04/05 12:33:07;;;;;;;3.55;2.15;;;8.00;99.90;;;;;;5064895;28;20041;-79
2023/04/05 12:35:35;;;;;;;4.25;2.35;;;8.00;99.90;;;;;;5053528;28;20098;-77
2023/04/05 12:38:04;;;;;;;5.20;2.55;;;7.90;99.90;;;;;;5064646;28;20109;-79
2023/04/05 12:40:32;;;;;;;4.68;2.55;;;7.70;99.90;;;;;;5065058;28;20106;-80
2023/04/05 12:43:06;;;;;;;5.63;2.65;;;7.50;99.90;;;;;;5047927;28;20505;-79
2023/04/05 12:45:40;;;;;;;4.47;2.90;;;7.30;99.90;;;;;;5061332;28;20472;-83
2023/04/05 12:48:10;;;;;;;6.38;2.58;;;7.30;99.90;;;;;;5059778;28;20057;-78
2023/04/05 12:50:43;;;;;;;5.75;2.35;;;7.10;99.90;;;;;;5064591;28;20660;-78
2023/04/05 12:53:19;;;;;;;4.38;2.80;;;7.10;99.90;;;;;;5055372;28;20427;-78
2023/04/05 12:55:52;;;;;;;5.15;2.50;;;7.10;99.90;;;;;;5058465;28;20067;-78
2023/04/05 12:58:21;;;;;;;4.22;2.05;;;7.20;99.90;;;;;;5067966;28;20048;-78
2023/04/05 13:00:50;;;;;;;3.78;2.63;;;7.30;99.90;;;;;;5064367;28;20408;-79
2023/04/05 13:03:19;;;;;;;4.38;3.00;;;7.40;99.90;;;;;;5059388;28;20044;-78
2023/04/05 13:05:48;;;;;;;4.72;2.72;;;7.40;99.90;;;;;;5063321;28;20041;-79
2023/04/05 13:08:17;;;;;;;4.47;3.13;;;7.40;99.90;;;;;;5049713;28;20531;-79
2023/04/05 13:10:46;;;;;;;5.78;2.95;;;7.40;99.90;;;;;;5064563;28;20064;-79
2023/04/05 13:13:14;;;;;;;9.07;3.33;;;7.50;99.90;;;;;;5068777;28;20044;-79
2023/04/05 13:15:42;;;;;;;9.48;3.10;;;7.70;99.90;;;;;;5051840;28;20097;-78
2023/04/05 13:18:13;;;;;;;8.40;3.17;;;7.90;99.90;;;;;;5067706;28;20048;-79
2023/04/05 13:20:42;;;;;;;6.20;2.65;;;8.10;99.90;;;;;;5070291;28;20064;-80